createdAt,value
2018-10-19T00:00:31.329Z,13.14
2018-10-19T00:03:00.481Z,13.20
2018-10-19T00:05:29.648Z,13.16
2018-10-19T00:07:58.725Z,13.17
2018-10-19T00:10:27.827Z,13.19
2018-10-19T00:12:57.020Z,13.15
2018-10-19T00:15:26.102Z,13.15
2018-10-19T00:17:55.227Z,13.13
2018-10-19T00:20:24.298Z,13.18
2018-10-19T00:22:53.449Z,13.22
2018-10-19T00:25:22.453Z,13.24
2018-10-19T00:27:51.605Z,13.20
2018-10-19T00:30:20.687Z,13.19
2018-10-19T00:32:50.007Z,13.19
2018-10-19T00:35:19.403Z,13.18
2018-10-19T00:37:48.483Z,13.16
2018-10-19T00:40:17.583Z,13.22
2018-10-19T00:42:46.876Z,13.18
2018-10-19T00:45:16.050Z,13.20
2018-10-19T00:47:45.106Z,13.23
2018-10-19T00:50:14.183Z,13.23
2018-10-19T00:52:43.415Z,13.16
2018-10-19T00:55:12.526Z,13.22
2018-10-19T00:57:41.635Z,13.24
2018-10-19T01:00:10.791Z,13.26
2018-10-19T01:02:39.758Z,13.26
2018-10-19T01:05:08.996Z,13.24
2018-10-19T01:07:38.130Z,13.20
2018-10-19T01:10:07.208Z,13.23
2018-10-19T01:12:36.306Z,13.22
2018-10-19T01:15:05.728Z,13.21
2018-10-19T01:17:34.945Z,13.25
2018-10-19T01:20:03.948Z,13.31
2018-10-19T01:22:32.945Z,13.31
2018-10-19T01:25:01.941Z,13.27
2018-10-19T01:27:30.946Z,13.27
2018-10-19T01:29:59.958Z,13.21
2018-10-19T01:32:28.990Z,13.24
2018-10-19T01:34:58.118Z,13.23
2018-10-19T01:37:27.012Z,13.22
2018-10-19T01:39:57.379Z,13.24
2018-10-19T01:42:26.371Z,13.27
2018-10-19T01:44:55.386Z,13.27
2018-10-19T01:47:24.365Z,13.29
2018-10-19T01:49:53.331Z,13.33
2018-10-19T01:52:22.405Z,13.36
2018-10-19T01:54:51.698Z,13.36
2018-10-19T01:57:21.429Z,13.35
2018-10-19T01:59:50.838Z,13.38
2018-10-19T02:02:20.038Z,13.32
2018-10-19T02:04:49.056Z,13.29
2018-10-19T02:07:18.012Z,13.29
2018-10-19T02:09:47.090Z,13.25
2018-10-19T02:12:16.146Z,13.28
2018-10-19T02:14:45.084Z,13.27
2018-10-19T02:17:14.196Z,13.28
2018-10-19T02:19:43.234Z,13.19
2018-10-19T02:22:12.289Z,13.24
2018-10-19T02:24:41.305Z,13.22
2018-10-19T02:27:10.294Z,13.24
2018-10-19T02:29:39.391Z,13.22
2018-10-19T02:32:08.423Z,13.24
2018-10-19T02:34:37.675Z,13.19
2018-10-19T02:37:06.891Z,13.18
2018-10-19T02:39:35.900Z,13.22
2018-10-19T02:42:05.058Z,13.19
2018-10-19T02:44:34.062Z,13.14
2018-10-19T02:47:03.268Z,13.13
2018-10-19T02:49:32.286Z,13.18
2018-10-19T02:52:01.254Z,13.09
2018-10-19T02:54:30.278Z,13.10
2018-10-19T02:56:59.361Z,13.09
2018-10-19T02:59:28.341Z,13.03
2018-10-19T03:01:57.334Z,12.98
2018-10-19T03:04:26.358Z,12.95
2018-10-19T03:06:55.422Z,12.97
2018-10-19T03:09:24.424Z,12.99
2018-10-19T03:11:53.411Z,12.98
2018-10-19T03:14:22.401Z,12.97
2018-10-19T03:16:51.397Z,13.00
2018-10-19T03:19:20.434Z,12.98
2018-10-19T03:21:49.478Z,12.99
2018-10-19T03:24:18.471Z,12.97
2018-10-19T03:26:47.469Z,12.98
2018-10-19T03:29:16.507Z,12.99
2018-10-19T03:31:45.468Z,12.99
2018-10-19T03:34:15.580Z,12.98
2018-10-19T03:36:44.577Z,12.96
2018-10-19T03:39:13.639Z,12.97
2018-10-19T03:41:42.566Z,12.96
2018-10-19T03:44:11.548Z,12.94
2018-10-19T03:46:40.690Z,12.90
2018-10-19T03:49:09.741Z,12.92
2018-10-19T03:51:38.752Z,12.93
2018-10-19T03:54:07.771Z,12.92
2018-10-19T03:56:36.742Z,12.94
2018-10-19T03:59:05.932Z,12.90
2018-10-19T04:01:35.052Z,12.95
2018-10-19T04:04:04.228Z,12.93
2018-10-19T04:06:35.589Z,12.95
2018-10-19T04:09:07.326Z,12.89
2018-10-19T04:11:36.262Z,12.89
2018-10-19T04:14:05.634Z,12.88
2018-10-19T04:16:34.726Z,12.85
2018-10-19T04:19:03.934Z,12.74
2018-10-19T04:21:33.139Z,12.76
2018-10-19T04:24:02.313Z,12.71
2018-10-19T04:26:31.345Z,12.74
2018-10-19T04:29:00.553Z,12.73
2018-10-19T04:31:29.542Z,12.58
2018-10-19T04:33:58.541Z,12.52
2018-10-19T04:36:27.507Z,12.40
2018-10-19T04:38:56.598Z,12.30
2018-10-19T04:41:25.598Z,12.28
2018-10-19T04:43:54.582Z,12.34
2018-10-19T04:46:23.617Z,12.27
2018-10-19T04:48:52.667Z,12.30
2018-10-19T04:51:21.653Z,12.21
2018-10-19T04:53:50.749Z,12.18
2018-10-19T04:56:19.662Z,12.21
2018-10-19T04:58:48.660Z,12.21
2018-10-19T05:01:17.656Z,12.15
2018-10-19T05:03:46.678Z,12.10
2018-10-19T05:06:15.813Z,12.13
2018-10-19T05:08:44.760Z,12.19
2018-10-19T05:11:13.813Z,12.22
2018-10-19T05:13:42.757Z,12.17
2018-10-19T05:16:11.825Z,12.19
2018-10-19T05:18:40.799Z,12.15
2018-10-19T05:21:09.840Z,12.14
2018-10-19T05:23:39.010Z,12.13
2018-10-19T05:26:08.031Z,12.08
2018-10-19T05:28:36.998Z,12.16
2018-10-19T05:31:06.062Z,12.08
2018-10-19T05:33:35.134Z,12.15
2018-10-19T05:36:04.395Z,12.09
2018-10-19T05:38:34.189Z,12.07
2018-10-19T05:41:03.262Z,12.10
2018-10-19T05:43:32.200Z,12.13
2018-10-19T05:46:01.180Z,12.06
2018-10-19T05:48:30.161Z,12.10
2018-10-19T05:50:59.177Z,12.08
2018-10-19T05:53:28.192Z,12.10
2018-10-19T05:55:57.242Z,12.18
2018-10-19T05:58:26.177Z,12.19
2018-10-19T06:00:55.146Z,12.30
2018-10-19T06:03:24.164Z,12.31
2018-10-19T06:05:53.233Z,12.22
2018-10-19T06:08:22.271Z,12.21
2018-10-19T06:10:51.446Z,12.14
2018-10-19T06:13:20.469Z,12.23
2018-10-19T06:15:49.537Z,12.24
2018-10-19T06:18:19.057Z,12.25
2018-10-19T06:20:48.110Z,12.31
2018-10-19T06:23:17.209Z,12.25
2018-10-19T06:25:46.144Z,12.34
2018-10-19T06:28:15.297Z,12.29
2018-10-19T06:30:44.403Z,12.27
2018-10-19T06:33:13.416Z,12.22
2018-10-19T06:35:42.426Z,12.31
2018-10-19T06:38:11.514Z,12.25
2018-10-19T06:40:40.501Z,12.20
2018-10-19T06:43:09.686Z,12.18
2018-10-19T06:45:38.648Z,12.19
2018-10-19T06:48:07.734Z,12.20
2018-10-19T06:50:36.699Z,12.13
2018-10-19T06:53:05.771Z,12.08
2018-10-19T06:55:34.730Z,12.16
2018-10-19T06:58:03.738Z,12.16
2018-10-19T07:00:32.720Z,12.11
2018-10-19T07:03:01.723Z,12.09
2018-10-19T07:05:30.753Z,12.07
2018-10-19T07:07:59.795Z,12.10
2018-10-19T07:10:28.727Z,12.10
2018-10-19T07:12:57.732Z,12.04
2018-10-19T07:15:26.733Z,12.00
2018-10-19T07:17:55.693Z,11.99
2018-10-19T07:20:24.691Z,12.00
2018-10-19T07:22:53.830Z,12.03
2018-10-19T07:25:22.786Z,11.95
2018-10-19T07:27:51.861Z,11.91
2018-10-19T07:30:20.864Z,11.95
2018-10-19T07:32:49.855Z,11.86
2018-10-19T07:35:18.995Z,11.78
2018-10-19T07:37:48.838Z,11.75
2018-10-19T07:40:17.925Z,11.71
2018-10-19T07:42:47.070Z,11.65
2018-10-19T07:45:16.093Z,11.67
2018-10-19T07:47:45.264Z,11.72
2018-10-19T07:50:14.250Z,11.74
2018-10-19T07:52:43.200Z,11.70
2018-10-19T07:55:12.411Z,11.80
2018-10-19T07:57:41.459Z,11.77
2018-10-19T08:00:11.014Z,11.76
2018-10-19T08:02:39.978Z,11.77
2018-10-19T08:05:09.756Z,11.77
2018-10-19T08:07:38.762Z,11.88
2018-10-19T08:10:08.674Z,11.88
2018-10-19T08:12:37.702Z,11.83
2018-10-19T08:15:08.592Z,11.89
2018-10-19T08:17:37.814Z,11.82
2018-10-19T08:20:07.479Z,11.74
2018-10-19T08:22:38.969Z,11.64
2018-10-19T08:25:09.776Z,11.74
2018-10-19T08:27:38.832Z,11.67
2018-10-19T08:30:07.932Z,11.69
2018-10-19T08:32:37.302Z,11.79
2018-10-19T08:35:06.898Z,11.84
2018-10-19T08:37:36.190Z,11.84
2018-10-19T08:40:06.308Z,11.81
2018-10-19T08:42:35.319Z,11.77
2018-10-19T08:45:04.431Z,11.78
2018-10-19T08:47:33.478Z,11.73
2018-10-19T08:50:02.512Z,11.67
2018-10-19T08:52:31.529Z,11.65
2018-10-19T08:55:00.611Z,11.58
2018-10-19T08:57:29.614Z,11.65
2018-10-19T08:59:58.636Z,11.61
2018-10-19T09:02:27.815Z,11.73
2018-10-19T09:04:56.993Z,11.74
2018-10-19T09:07:26.000Z,11.84
2018-10-19T09:09:54.982Z,11.92
2018-10-19T09:12:24.057Z,11.95
2018-10-19T09:14:54.812Z,11.97
2018-10-19T09:17:23.934Z,12.02
2018-10-19T09:19:53.242Z,12.10
2018-10-19T09:22:22.414Z,12.05
2018-10-19T09:24:51.712Z,12.00
2018-10-19T09:27:20.911Z,12.07
2018-10-19T09:29:49.938Z,11.93
2018-10-19T09:32:18.944Z,11.84
2018-10-19T09:34:47.994Z,11.95
2018-10-19T09:37:16.941Z,11.96
2018-10-19T09:39:46.061Z,11.98
2018-10-19T09:42:15.159Z,11.98
2018-10-19T09:44:47.877Z,12.00
2018-10-19T09:47:17.523Z,11.85
2018-10-19T09:49:46.502Z,11.92
2018-10-19T09:52:15.450Z,11.91
2018-10-19T09:54:44.445Z,11.85
2018-10-19T09:57:13.559Z,11.89
2018-10-19T09:59:42.420Z,11.88
2018-10-19T10:02:11.488Z,11.83
2018-10-19T10:04:40.438Z,11.84
2018-10-19T10:07:09.500Z,11.82
2018-10-19T10:09:38.716Z,11.76
2018-10-19T10:12:07.708Z,11.72
2018-10-19T10:14:36.946Z,11.68
2018-10-19T10:17:05.954Z,11.61
2018-10-19T10:19:34.934Z,11.71
2018-10-19T10:22:03.890Z,11.75
2018-10-19T10:24:32.945Z,11.84
2018-10-19T10:27:01.869Z,11.75
2018-10-19T10:29:30.923Z,11.83
2018-10-19T10:32:00.020Z,11.93
2018-10-19T10:34:29.006Z,11.96
2018-10-19T10:36:58.095Z,11.93
2018-10-19T10:39:27.081Z,11.87
2018-10-19T10:41:56.052Z,11.85
2018-10-19T10:44:25.053Z,11.94
2018-10-19T10:46:54.058Z,11.94
2018-10-19T10:49:23.066Z,11.95
2018-10-19T10:51:52.190Z,11.92
2018-10-19T10:54:21.137Z,12.00
2018-10-19T10:56:50.114Z,12.03
2018-10-19T10:59:19.133Z,12.08
2018-10-19T11:01:48.115Z,12.05
2018-10-19T11:04:17.174Z,12.14
2018-10-19T11:06:46.323Z,12.12
2018-10-19T11:09:15.273Z,12.05
2018-10-19T11:11:44.277Z,12.07
2018-10-19T11:14:13.314Z,11.98
2018-10-19T11:16:42.248Z,11.97
2018-10-19T11:19:11.526Z,11.93
2018-10-19T11:21:40.592Z,11.95
2018-10-19T11:24:09.662Z,12.08
2018-10-19T11:26:38.687Z,12.14
2018-10-19T11:29:07.689Z,12.17
2018-10-19T11:31:36.759Z,12.15
2018-10-19T11:34:05.934Z,12.28
2018-10-19T11:36:34.868Z,12.41
2018-10-19T11:39:04.664Z,12.43
2018-10-19T11:41:33.685Z,12.39
2018-10-19T11:44:02.744Z,12.33
2018-10-19T11:46:31.742Z,12.26
2018-10-19T11:49:00.790Z,12.17
2018-10-19T11:51:29.717Z,12.17
2018-10-19T11:53:58.684Z,12.14
2018-10-19T11:56:27.714Z,12.16
2018-10-19T11:58:56.723Z,12.14
2018-10-19T12:01:25.729Z,12.16
2018-10-19T12:03:54.758Z,12.19
2018-10-19T12:06:23.712Z,12.34
2018-10-19T12:08:52.809Z,12.34
2018-10-19T12:11:21.782Z,12.32
2018-10-19T12:13:50.773Z,12.37
2018-10-19T12:16:19.940Z,12.26
2018-10-19T12:18:48.861Z,12.32
2018-10-19T12:21:17.930Z,12.48
2018-10-19T12:23:46.880Z,12.38
2018-10-19T12:26:15.892Z,12.35
2018-10-19T12:28:44.960Z,12.29
2018-10-19T12:31:13.971Z,12.44
2018-10-19T12:33:42.934Z,12.43
2018-10-19T12:36:11.930Z,12.47
2018-10-19T12:38:40.932Z,12.54
2018-10-19T12:41:10.084Z,12.56
2018-10-19T12:43:39.001Z,12.54
2018-10-19T12:46:20.749Z,12.55
2018-10-19T12:48:50.097Z,12.63
2018-10-19T12:51:19.928Z,12.56
2018-10-19T12:53:49.076Z,12.55
2018-10-19T12:56:19.080Z,12.50
2018-10-19T12:58:49.070Z,12.52
2018-10-19T13:01:18.192Z,12.48
2018-10-19T13:03:47.159Z,12.53
2018-10-19T13:06:16.167Z,12.63
2018-10-19T13:08:45.161Z,12.61
2018-10-19T13:11:14.203Z,12.78
2018-10-19T13:13:43.268Z,12.67
2018-10-19T13:16:12.256Z,12.69
2018-10-19T13:18:41.214Z,12.60
2018-10-19T13:21:10.476Z,12.74
2018-10-19T13:23:39.482Z,12.68
2018-10-19T13:26:08.520Z,12.82
2018-10-19T13:28:37.485Z,12.80
2018-10-19T13:31:06.515Z,12.80
2018-10-19T13:33:35.486Z,12.70
2018-10-19T13:36:04.814Z,12.68
2018-10-19T13:38:33.796Z,12.75
2018-10-19T13:41:04.606Z,12.81
2018-10-19T13:43:33.722Z,12.91
2018-10-19T13:46:02.889Z,12.90
2018-10-19T13:48:32.026Z,12.98
2018-10-19T13:51:01.163Z,12.93
2018-10-19T13:53:30.105Z,12.94
2018-10-19T13:55:59.098Z,12.99
2018-10-19T13:58:28.277Z,13.01
2018-10-19T14:00:57.184Z,13.04
2018-10-19T14:03:26.191Z,13.00
2018-10-19T14:05:55.175Z,12.92
2018-10-19T14:08:24.147Z,12.87
2018-10-19T14:10:53.164Z,12.93
2018-10-19T14:13:22.215Z,12.92
2018-10-19T14:15:51.402Z,12.78
2018-10-19T14:18:20.456Z,12.65
2018-10-19T14:20:49.516Z,12.64
2018-10-19T14:23:18.651Z,12.63
2018-10-19T14:25:47.534Z,12.60
2018-10-19T14:28:16.532Z,12.56
2018-10-19T14:30:45.522Z,12.48
2018-10-19T14:33:14.728Z,12.49
2018-10-19T14:35:43.639Z,12.55
2018-10-19T14:38:12.680Z,12.46
2018-10-19T14:40:41.708Z,12.41
2018-10-19T14:43:10.817Z,12.39
2018-10-19T14:45:39.833Z,12.44
2018-10-19T14:48:08.882Z,12.40
2018-10-19T14:50:37.924Z,12.37
2018-10-19T14:53:06.967Z,12.31
2018-10-19T14:55:36.170Z,12.34
2018-10-19T14:58:05.473Z,12.46
2018-10-19T15:00:34.569Z,12.43
2018-10-19T15:03:03.747Z,12.49
2018-10-19T15:05:32.929Z,12.51
2018-10-19T15:08:02.175Z,12.56
2018-10-19T15:10:31.384Z,12.59
2018-10-19T15:13:00.289Z,12.61
2018-10-19T15:15:29.557Z,12.62
2018-10-19T15:17:58.910Z,12.62
2018-10-19T15:20:27.997Z,12.58
2018-10-19T15:22:56.969Z,12.56
2018-10-19T15:25:25.933Z,12.48
2018-10-19T15:27:54.928Z,12.51
2018-10-19T15:30:23.961Z,12.49
2018-10-19T15:32:52.951Z,12.53
2018-10-19T15:35:21.965Z,12.56
2018-10-19T15:37:50.915Z,12.53
2018-10-19T15:40:19.912Z,12.49
2018-10-19T15:42:48.880Z,12.56
2018-10-19T15:45:17.899Z,12.56
2018-10-19T15:47:46.948Z,12.46
2018-10-19T15:50:15.983Z,12.44
2018-10-19T15:52:45.112Z,12.46
2018-10-19T15:55:14.343Z,12.46
2018-10-19T15:57:43.377Z,12.46
2018-10-19T16:00:12.500Z,12.41
2018-10-19T16:02:41.462Z,12.38
2018-10-19T16:05:10.469Z,12.40
2018-10-19T16:07:39.460Z,12.39
2018-10-19T16:10:08.421Z,12.37
2018-10-19T16:12:37.423Z,12.35
2018-10-19T16:15:08.620Z,12.36
2018-10-19T16:17:37.570Z,12.33
2018-10-19T16:20:08.303Z,12.28
2018-10-19T16:22:37.616Z,12.29
2018-10-19T16:25:07.046Z,12.33
2018-10-19T16:27:36.866Z,12.22
2018-10-19T16:30:07.150Z,12.23
2018-10-19T16:32:36.353Z,12.19
2018-10-19T16:35:05.343Z,12.16
2018-10-19T16:37:34.385Z,12.13
2018-10-19T16:40:03.544Z,12.13
2018-10-19T16:42:32.590Z,12.10
2018-10-19T16:45:01.636Z,12.15
2018-10-19T16:47:30.967Z,12.15
2018-10-19T16:50:00.012Z,12.12
2018-10-19T16:52:29.120Z,12.14
2018-10-19T16:54:59.046Z,12.14
2018-10-19T16:57:28.098Z,12.15
2018-10-19T16:59:57.173Z,12.12
2018-10-19T17:02:26.092Z,12.14
2018-10-19T17:04:55.126Z,12.13
2018-10-19T17:07:24.138Z,12.15
2018-10-19T17:09:53.087Z,12.11
2018-10-19T17:12:22.081Z,12.10
2018-10-19T17:14:51.082Z,12.14
2018-10-19T17:17:20.098Z,12.10
2018-10-19T17:19:49.055Z,12.07
2018-10-19T17:22:18.158Z,12.10
2018-10-19T17:24:47.159Z,12.12
2018-10-19T17:27:16.167Z,12.13
2018-10-19T17:29:45.204Z,12.10
2018-10-19T17:32:14.330Z,12.11
2018-10-19T17:34:43.313Z,12.13
2018-10-19T17:37:12.326Z,12.09
2018-10-19T17:39:41.312Z,12.11
2018-10-19T17:42:10.451Z,12.11
2018-10-19T17:44:39.393Z,12.26
2018-10-19T17:47:09.737Z,12.29
2018-10-19T17:49:38.925Z,12.27
2018-10-19T17:52:08.233Z,12.61
2018-10-19T17:54:38.351Z,12.75
2018-10-19T17:57:07.382Z,12.75
2018-10-19T17:59:37.371Z,12.74
2018-10-19T18:02:06.447Z,12.90
2018-10-19T18:04:36.560Z,12.57
2018-10-19T18:07:05.718Z,12.40
2018-10-19T18:09:34.955Z,12.30
2018-10-19T18:12:03.903Z,12.20
2018-10-19T18:14:33.064Z,12.15
2018-10-19T18:17:02.138Z,12.11
2018-10-19T18:19:31.109Z,12.03
2018-10-19T18:22:01.350Z,12.04
2018-10-19T18:24:31.314Z,12.00
2018-10-19T18:27:00.323Z,12.00
2018-10-19T18:29:30.177Z,12.00
2018-10-19T18:32:00.151Z,12.00
2018-10-19T18:34:29.348Z,11.98
2018-10-19T18:36:58.386Z,11.99
2018-10-19T18:39:27.378Z,11.96
2018-10-19T18:41:56.448Z,11.92
2018-10-19T18:44:25.491Z,11.92
2018-10-19T18:46:54.591Z,11.90
2018-10-19T18:49:23.913Z,11.88
2018-10-19T18:51:52.990Z,11.92
2018-10-19T18:54:22.175Z,11.93
2018-10-19T18:56:51.175Z,11.93
2018-10-19T18:59:20.182Z,11.90
2018-10-19T19:01:49.108Z,11.83
2018-10-19T19:04:18.102Z,11.82
2018-10-19T19:06:48.042Z,11.88
2018-10-19T19:09:18.047Z,11.80
2018-10-19T19:11:47.076Z,11.78
2018-10-19T19:14:16.283Z,11.82
2018-10-19T19:16:45.280Z,11.77
2018-10-19T19:19:14.373Z,11.75
2018-10-19T19:21:43.421Z,11.77
2018-10-19T19:24:17.974Z,11.82
2018-10-19T19:26:46.975Z,11.82
2018-10-19T19:29:16.213Z,11.81
2018-10-19T19:31:45.158Z,11.89
2018-10-19T19:34:21.121Z,11.89
2018-10-19T19:36:50.070Z,11.83
2018-10-19T19:39:19.100Z,11.79
2018-10-19T19:41:53.482Z,11.73
2018-10-19T19:44:22.544Z,11.74
2018-10-19T19:46:51.497Z,11.71
2018-10-19T19:49:25.877Z,11.74
2018-10-19T19:51:54.913Z,11.76
2018-10-19T19:54:24.024Z,11.68
2018-10-19T19:56:53.027Z,11.63
2018-10-19T19:59:22.111Z,11.60
2018-10-19T20:01:51.108Z,11.60
2018-10-19T20:04:20.389Z,11.66
2018-10-19T20:06:49.487Z,11.59
2018-10-19T20:09:18.503Z,11.56
2018-10-19T20:11:47.511Z,11.49
2018-10-19T20:14:16.502Z,11.49
2018-10-19T20:16:45.448Z,11.47
2018-10-19T20:19:14.408Z,11.50
2018-10-19T20:21:43.353Z,11.49
2018-10-19T20:24:12.337Z,11.47
2018-10-19T20:26:42.078Z,11.51
2018-10-19T20:29:11.106Z,11.49
2018-10-19T20:31:40.086Z,11.47
2018-10-19T20:34:09.176Z,11.44
2018-10-19T20:36:38.441Z,11.43
2018-10-19T20:39:08.968Z,11.53
2018-10-19T20:41:38.024Z,11.48
2018-10-19T20:44:07.104Z,11.43
2018-10-19T20:46:36.143Z,11.47
2018-10-19T20:49:05.449Z,11.45
2018-10-19T20:51:35.513Z,11.48
2018-10-19T20:54:04.603Z,11.42
2018-10-19T20:56:33.565Z,11.39
2018-10-19T20:59:02.834Z,11.39
2018-10-19T21:01:31.843Z,11.40
2018-10-19T21:04:00.904Z,11.41
2018-10-19T21:06:30.023Z,11.38
2018-10-19T21:08:59.124Z,11.34
2018-10-19T21:11:28.086Z,11.32
2018-10-19T21:13:57.283Z,11.28
2018-10-19T21:16:26.207Z,11.25
2018-10-19T21:18:55.232Z,11.31
2018-10-19T21:21:24.181Z,11.34
2018-10-19T21:23:54.092Z,11.35
2018-10-19T21:26:24.024Z,11.30
2018-10-19T21:28:55.074Z,11.28
2018-10-19T21:31:24.085Z,11.28
2018-10-19T21:33:53.074Z,11.25
2018-10-19T21:36:22.042Z,11.20
2018-10-19T21:38:50.989Z,11.25
2018-10-19T21:41:21.017Z,11.25
2018-10-19T21:43:50.160Z,11.28
2018-10-19T21:46:19.202Z,11.27
2018-10-19T21:48:48.129Z,11.22
2018-10-19T21:51:17.063Z,11.21
2018-10-19T21:53:46.033Z,11.27
2018-10-19T21:56:15.051Z,11.21
2018-10-19T21:58:43.990Z,11.22
2018-10-19T22:01:12.978Z,11.22
2018-10-19T22:03:41.971Z,11.20
2018-10-19T22:06:10.970Z,11.17
2018-10-19T22:08:40.077Z,11.19
2018-10-19T22:11:09.041Z,11.23
2018-10-19T22:13:37.956Z,11.25
2018-10-19T22:16:07.529Z,11.21
2018-10-19T22:18:36.529Z,11.24
2018-10-19T22:21:05.540Z,11.25
2018-10-19T22:23:34.567Z,11.20
2018-10-19T22:26:03.571Z,11.22
2018-10-19T22:28:32.511Z,11.20
2018-10-19T22:31:01.510Z,11.13
2018-10-19T22:33:30.514Z,11.16
2018-10-19T22:35:59.462Z,11.10
2018-10-19T22:38:28.450Z,11.10
2018-10-19T22:40:57.369Z,11.06
2018-10-19T22:43:26.339Z,11.06
2018-10-19T22:45:55.334Z,11.10
2018-10-19T22:48:25.352Z,11.09
2018-10-19T22:50:54.299Z,11.02
2018-10-19T22:53:23.297Z,11.07
2018-10-19T22:55:52.325Z,11.06
2018-10-19T22:58:21.306Z,11.00
2018-10-19T23:00:50.348Z,10.99
2018-10-19T23:03:19.342Z,10.99
2018-10-19T23:05:48.307Z,10.95
2018-10-19T23:08:17.310Z,10.93
2018-10-19T23:10:46.426Z,10.93
2018-10-19T23:13:15.472Z,10.91
2018-10-19T23:15:44.365Z,10.90
2018-10-19T23:18:13.376Z,10.87
2018-10-19T23:20:42.349Z,10.86
2018-10-19T23:23:11.458Z,10.89
2018-10-19T23:25:40.393Z,10.88
2018-10-19T23:28:09.337Z,10.91
2018-10-19T23:30:38.418Z,10.89
2018-10-19T23:33:07.497Z,10.87
2018-10-19T23:35:36.537Z,10.82
2018-10-19T23:38:05.880Z,10.82
2018-10-19T23:40:34.847Z,10.81
2018-10-19T23:43:04.071Z,10.80
2018-10-19T23:45:33.031Z,10.80
2018-10-19T23:48:01.988Z,10.76
2018-10-19T23:50:30.915Z,10.69
2018-10-19T23:53:00.134Z,10.66
2018-10-19T23:55:29.104Z,10.63
2018-10-19T23:57:58.053Z,10.61
